Latest Weather Observations for Macquarie Island

IDT60801

Issued at 4:31 pm EDT Tuesday 9 February 2016 (issued every 30 minutes, with the page automatically refreshed every 10 minutes)

About weather observations | Map of weather stations | Latest weather observations for TAS | Other Formats
Station Details ID: 300004 Name: MACQUARIE ISLAND Lat: -54.50 Lon: 158.94 Height: 6.0 m
Data from the previous 72 hours. | See also: Recent months at Macquarie Island
Date/Time
EDT
Temp
°C
App
Temp
°C
Dew
Point
Rel
Hum
%
Delta-T
°C
Wind Press
QNH
hPa
Press
MSL
hPa
Rain
since 9 am
mm
Dir
 
Spd
km/h
Gust
km/h
Spd
kts
Gust
kts
09/04:30pm 6.1 -3.8 2.7 79 1.4 WNW 44 59 24 32 992.2 - 0.6
09/04:15pm 6.2 -3.6 3.4 82 1.2 WNW 44 63 24 34 992.3 - 0.6
09/04:00pm 6.5 -4.1 3.1 79 1.4 WNW 48 59 26 32 992.3 - 0.6
09/03:30pm 7.1 -2.6 3.0 75 1.7 WNW 43 59 23 32 992.4 - 0.6
09/03:00pm 7.6 -2.9 3.8 77 1.6 WNW 48 61 26 33 992.5 992.8 0.6
09/02:39pm 7.8 -3.0 4.0 77 1.6 WNW 50 69 27 37 992.5 - 0.6
09/02:30pm 7.2 -4.1 3.3 76 1.6 WNW 52 69 28 37 992.1 - 0.6
09/02:00pm 7.3 -2.8 3.9 79 1.5 W 46 63 25 34 992.3 - 0.6
09/01:30pm 6.2 -4.1 2.8 79 1.4 W 46 61 25 33 992.0 - 0.6
09/01:20pm 7.4 -2.4 3.5 76 1.7 WNW 44 63 24 34 991.9 - 0.4
09/01:00pm 7.2 -4.1 3.6 78 1.5 W 52 65 28 35 991.9 - 0.4
09/12:30pm 5.8 -6.9 3.3 84 1.0 W 59 80 32 43 991.7 - 0.4
09/12:27pm 5.1 -8.1 2.3 82 1.1 W 61 80 33 43 991.7 - 0.4
09/12:23pm 5.3 -9.5 2.1 80 1.3 W 69 80 37 43 991.7 - 0.4
09/12:06pm 6.6 -3.6 3.2 79 1.4 WNW 46 67 25 36 991.2 - 0.4
09/12:00pm 6.7 -3.5 3.1 78 1.5 WNW 46 61 25 33 991.3 991.6 0.4
09/11:30am 7.6 -2.0 4.2 79 1.5 W 44 56 24 30 991.1 - 0.4
09/11:00am 7.1 -3.7 3.9 80 1.4 W 50 59 27 32 990.7 - 0.4
09/10:30am 6.6 -3.9 3.9 83 1.2 W 48 63 26 34 990.3 - 0.4
09/10:00am 5.7 -5.2 3.5 86 0.9 W 50 65 27 35 990.0 - 0.2
09/09:45am 5.2 -6.3 2.2 81 1.2 W 52 74 28 40 990.1 - 0.2
09/09:30am 5.5 -5.4 3.3 86 0.9 W 50 65 27 35 989.7 - 0.2
09/09:01am 6.4 -5.9 3.0 79 1.4 W 57 76 31 41 989.4 - 0.0
09/09:00am 6.3 -6.4 2.9 79 1.4 W 59 76 32 41 989.4 989.7 2.6
09/08:51am 6.2 -8.1 2.5 77 1.5 W 67 76 36 41 989.3 - 2.6
09/08:40am 6.7 -3.8 3.5 80 1.4 WNW 48 70 26 38 989.0 - 2.6
09/08:30am 6.4 -4.1 3.4 81 1.3 W 48 63 26 34 988.9 - 2.6
09/08:02am 5.8 -5.2 3.1 83 1.1 WNW 50 69 27 37 988.8 - 2.6
09/08:00am 5.9 -5.4 3.2 83 1.1 WNW 52 67 28 36 988.7 - 2.6
09/07:35am 6.3 -5.4 3.1 80 1.3 WNW 54 74 29 40 988.2 - 2.6
09/07:30am 6.2 -5.5 3.4 82 1.2 WNW 54 67 29 36 988.1 - 2.6
09/07:09am 5.8 -6.5 3.0 82 1.2 W 57 76 31 41 987.9 - 2.6
09/07:00am 5.5 -7.3 2.5 81 1.2 W 59 74 32 40 987.8 - 2.6
09/06:30am 5.6 -8.4 1.9 77 1.5 W 65 85 35 46 987.2 - 2.6
09/06:14am 5.7 -7.4 2.9 82 1.2 W 61 80 33 43 987.0 - 2.6
09/06:00am 5.4 -8.6 2.4 81 1.2 W 65 80 35 43 986.9 987.2 2.6
09/05:30am 5.4 -8.9 2.6 82 1.1 W 67 91 36 49 986.5 - 2.6
09/05:00am 5.5 -8.7 3.2 85 1.0 W 67 87 36 47 985.7 - 2.6
09/04:31am 5.2 -8.2 3.2 87 0.8 W 63 82 34 44 985.2 - 2.6
09/04:30am 5.3 -8.1 3.3 87 0.8 W 63 74 34 40 985.0 - 2.6
09/04:00am 5.3 -8.5 3.3 87 0.8 W 65 83 35 45 984.7 - 2.6
09/03:30am 5.5 -7.8 3.7 88 0.8 W 63 83 34 45 984.3 - 2.6
09/03:00am 5.6 -7.3 3.8 88 0.8 W 61 80 33 43 983.7 984.0 2.6
09/02:30am 5.7 -8.8 3.7 87 0.8 W 69 91 37 49 983.0 - 2.6
09/02:17am 5.7 -6.8 3.9 88 0.8 WNW 59 78 32 42 982.8 - 2.6
09/02:00am 5.6 -7.7 3.9 89 0.7 W 63 80 34 43 982.5 - 2.6
09/01:30am 5.7 -6.4 4.2 90 0.6 WNW 57 80 31 43 982.3 - 2.6
09/01:00am 5.6 -7.6 4.2 91 0.6 WNW 63 82 34 44 981.8 - 2.4
09/12:30am 5.7 -8.3 4.3 91 0.6 WNW 67 87 36 47 981.3 - 2.2
09/12:01am 5.7 -8.3 4.3 91 0.6 WNW 67 87 36 47 980.6 - 1.8
09/12:00am 5.7 -7.9 4.3 91 0.6 WNW 65 82 35 44 980.6 980.9 1.8
 
Date/Time
EDT
Temp
°C
App
Temp
°C
Dew
Point
Rel
Hum
%
Delta-T
°C
Wind Press
QNH
hPa
Press
MSL
hPa
Rain
since 9 am
mm
Dir
 
Spd
km/h
Gust
km/h
Spd
kts
Gust
kts
08/11:30pm 5.8 -8.6 4.1 89 0.7 WNW 69 91 37 49 980.2 - 1.4
08/11:07pm 5.9 -8.7 4.1 88 0.8 NW 70 93 38 50 979.9 - 1.4
08/11:00pm 5.9 -8.5 4.1 88 0.8 NW 69 85 37 46 980.0 - 1.4
08/10:30pm 5.8 -8.6 4.0 88 0.8 NW 69 91 37 49 980.0 - 1.4
08/10:00pm 5.7 -9.3 4.0 89 0.7 NW 72 91 39 49 980.0 - 1.2
08/09:43pm 5.9 -9.1 4.1 88 0.8 NW 72 95 39 51 979.7 - 1.0
08/09:30pm 5.9 -9.5 4.1 88 0.8 NW 74 91 40 49 979.8 - 1.0
08/09:08pm 6.2 -9.2 4.0 86 0.9 NW 74 93 40 50 979.8 - 0.8
08/09:00pm 6.0 -9.4 4.0 87 0.9 NW 74 87 40 47 979.6 979.9 0.8
08/08:33pm 6.1 -8.9 3.9 86 0.9 NW 72 93 39 50 979.9 - 0.8
08/08:30pm 6.2 -9.2 4.0 86 0.9 NW 74 89 40 48 979.9 - 0.8
08/08:00pm 6.2 -8.4 3.9 85 1.0 NW 70 89 38 48 980.2 - 0.8
08/07:30pm 6.8 -7.9 3.4 79 1.4 NW 70 91 38 49 980.4 - 0.6
08/07:03pm 6.7 -7.7 3.9 82 1.2 NW 69 87 37 47 980.6 - 0.6
08/07:00pm 6.9 -7.6 3.5 79 1.4 NW 69 85 37 46 980.8 - 0.6
08/06:30pm 7.2 -7.9 3.3 76 1.6 NW 72 93 39 50 981.1 - 0.6
08/06:08pm 7.4 -7.1 3.6 77 1.6 NW 69 87 37 47 981.5 - 0.6
08/06:00pm 7.5 -7.6 3.2 74 1.8 NW 72 87 39 47 981.3 981.6 0.6
08/05:34pm 7.7 -6.8 3.7 76 1.7 NW 69 91 37 49 981.6 - 0.6
08/05:30pm 7.8 -6.9 3.8 76 1.7 NW 70 87 38 47 981.7 - 0.6
08/05:08pm 8.1 -3.7 4.9 80 1.4 NW 56 78 30 42 982.1 - 0.6
08/05:00pm 8.1 -3.9 5.0 81 1.4 NW 57 72 31 39 982.3 - 0.6
08/04:38pm 7.9 -3.4 5.5 85 1.1 NNW 54 72 29 39 982.9 - 0.6
08/04:30pm 8.0 -3.8 5.8 86 1.0 NNW 57 72 31 39 983.0 - 0.6
08/04:00pm 8.1 -3.5 5.6 84 1.1 NNW 56 69 30 37 983.7 - 0.6
08/03:30pm 8.6 -3.5 5.9 83 1.2 NNW 59 72 32 39 984.2 - 0.6
08/03:17pm 8.6 -3.5 5.9 83 1.2 NNW 59 78 32 42 984.5 - 0.6
08/03:00pm 8.6 -3.2 5.9 83 1.2 NNW 57 72 31 39 984.8 985.1 0.6
08/02:30pm 8.6 -2.2 6.2 85 1.1 NNW 52 63 28 34 985.6 - 0.6
08/02:00pm 8.8 -0.8 6.2 84 1.2 NNW 46 59 25 32 986.4 - 0.6
08/01:30pm 8.9 0.3 6.5 85 1.1 NNW 41 50 22 27 987.1 - 0.6
08/01:00pm 8.6 0.8 6.6 87 0.9 NNW 37 46 20 25 987.5 - 0.6
08/12:30pm 8.3 -0.9 6.3 87 0.9 NW 44 56 24 30 987.9 - 0.6
08/12:00pm 8.1 -2.3 6.2 88 0.9 NW 50 59 27 32 988.2 988.5 0.6
08/11:30am 7.6 -3.1 6.4 92 0.5 NW 52 61 28 33 988.3 - 0.6
08/11:00am 7.5 -3.2 6.6 94 0.4 NW 52 63 28 34 988.5 - 0.6
08/10:30am 7.5 -3.5 6.9 96 0.3 NNW 54 67 29 36 988.3 - 0.6
08/10:00am 6.9 -4.6 6.3 96 0.3 NNW 56 65 30 35 988.6 - 0.4
08/09:30am 7.2 -3.0 6.8 97 0.2 NNW 50 61 27 33 989.3 - 0.2
08/09:00am 7.3 -2.9 6.9 97 0.2 NNW 50 56 27 30 990.0 990.3 1.6
08/08:30am 7.1 -2.4 6.7 97 0.2 NNW 46 52 25 28 991.6 - 0.8
08/08:00am 7.0 -2.1 6.6 97 0.2 NNW 44 54 24 29 992.1 - 0.4
08/07:30am 6.9 -2.3 6.5 97 0.2 NNW 44 50 24 27 992.6 - 0.4
08/07:00am 6.8 -1.1 6.4 97 0.2 NNW 37 43 20 23 993.6 - 0.4
08/06:30am 6.9 -1.7 6.5 97 0.2 NNW 41 48 22 26 994.6 - 0.4
08/06:00am 6.9 -1.7 6.5 97 0.2 N 41 46 22 25 995.0 995.3 0.4
08/05:30am 6.5 -0.7 5.9 96 0.3 N 33 39 18 21 995.8 - 0.4
08/05:00am 6.3 0.4 5.7 96 0.3 N 26 35 14 19 996.9 - 0.4
08/04:30am 6.1 -0.2 5.5 96 0.3 N 28 33 15 18 998.1 - 0.4
08/04:00am 6.0 -0.4 5.4 96 0.3 N 28 35 15 19 998.9 - 0.4
08/03:30am 5.9 -0.1 5.3 96 0.3 N 26 33 14 18 999.6 - 0.4
08/03:00am 5.7 -0.7 5.0 95 0.3 N 28 33 15 18 1000.8 1001.1 0.4
08/02:30am 5.7 -1.5 4.8 94 0.4 N 32 35 17 19 1001.7 - 0.4
08/02:00am 5.7 -1.8 4.7 93 0.4 N 33 39 18 21 1002.6 - 0.4
08/01:30am 5.8 -1.1 4.6 92 0.5 N 30 35 16 19 1003.3 - 0.4
08/01:00am 5.7 -0.9 4.0 89 0.7 NNW 28 32 15 17 1003.8 - 0.4
08/12:30am 5.6 -1.1 3.9 89 0.7 NNW 28 32 15 17 1004.4 - 0.4
08/12:00am 5.4 -1.3 3.9 90 0.6 NNW 28 32 15 17 1004.9 1005.2 0.4
 
Date/Time
EDT
Temp
°C
App
Temp
°C
Dew
Point
Rel
Hum
%
Delta-T
°C
Wind Press
QNH
hPa
Press
MSL
hPa
Rain
since 9 am
mm
Dir
 
Spd
km/h
Gust
km/h
Spd
kts
Gust
kts
07/11:30pm 5.2 -0.7 3.9 91 0.5 NNW 24 30 13 16 1005.5 - 0.4
07/11:00pm 5.0 -0.9 4.0 93 0.4 NNW 24 28 13 15 1006.1 - 0.4
07/10:30pm 4.5 -1.1 3.5 93 0.4 NW 22 28 12 15 1006.6 - 0.4
07/10:00pm 4.7 -0.9 3.7 93 0.4 NW 22 26 12 14 1006.8 - 0.2
07/09:30pm 4.9 -1.0 3.7 92 0.5 NW 24 33 13 18 1007.1 - 0.2
07/09:00pm 5.0 0.0 3.8 92 0.5 NW 19 20 10 11 1007.4 1007.7 0.2
07/08:30pm 5.0 0.0 3.8 92 0.5 WNW 19 20 10 11 1007.5 - 0.2
07/08:00pm 5.2 -0.7 3.7 90 0.6 NW 24 30 13 16 1007.2 - 0.2
07/07:30pm 5.1 -0.1 3.3 88 0.7 NW 20 24 11 13 1007.0 - 0.2
07/07:00pm 5.5 -0.9 3.3 86 0.9 NW 26 30 14 16 1007.0 - 0.2
07/06:30pm 5.5 0.4 3.2 85 1.0 W 19 24 10 13 1006.9 - 0.2
07/06:00pm 5.4 0.2 3.6 88 0.8 W 20 28 11 15 1006.9 1007.2 0.2
07/05:30pm 5.4 -0.2 3.6 88 0.8 W 22 28 12 15 1006.9 - 0.2
07/05:00pm 5.6 -0.8 3.4 86 0.9 W 26 32 14 17 1006.8 - 0.2
07/04:30pm 5.9 -0.2 2.9 81 1.2 W 24 33 13 18 1006.9 - 0.2
07/04:00pm 5.8 -0.2 3.1 83 1.1 W 24 32 13 17 1006.7 - 0.2
07/03:30pm 6.1 -0.7 3.1 81 1.2 W 28 35 15 19 1006.4 - 0.2
07/03:00pm 7.0 -0.3 4.3 83 1.2 W 32 41 17 22 1006.3 1006.6 0.2
07/02:30pm 6.4 -1.1 3.6 82 1.2 W 32 43 17 23 1005.8 - 0.2
07/02:00pm 6.2 -2.5 4.2 87 0.9 W 39 52 21 28 1005.4 - 0.2
07/01:30pm 6.1 -3.5 3.6 84 1.1 W 43 54 23 29 1005.0 - 0.2
07/01:00pm 6.4 -4.3 4.4 87 0.9 W 50 61 27 33 1004.5 - 0.2
07/12:30pm 6.4 -4.3 4.7 89 0.7 W 50 61 27 33 1004.4 - 0.0
07/12:00pm 6.3 -4.3 4.9 91 0.6 W 50 61 27 33 1004.0 1004.3 0.0
07/11:30am 6.3 -4.4 4.8 90 0.7 W 50 61 27 33 1003.7 - 0.0
07/11:00am 6.4 -4.3 4.6 88 0.8 W 50 59 27 32 1003.3 - 0.0
07/10:30am 6.6 -5.3 4.3 85 1.0 W 56 65 30 35 1003.2 - 0.0
07/10:00am 6.2 -4.2 4.4 88 0.8 WNW 48 63 26 34 1002.8 - 0.0
07/09:30am 6.1 -5.1 4.1 87 0.9 WNW 52 63 28 34 1002.7 - 0.0
07/09:00am 6.1 -3.8 4.6 90 0.7 WNW 46 56 25 30 1002.4 1002.7 1.2
07/08:30am 6.0 -5.2 4.2 88 0.8 W 52 63 28 34 1002.1 - 1.2
07/08:00am 6.0 -5.2 4.0 87 0.8 W 52 65 28 35 1001.6 - 1.2
07/07:30am 6.0 -4.8 4.2 88 0.8 WNW 50 61 27 33 1001.1 - 1.2
07/07:24am 6.0 -5.2 4.0 87 0.8 WNW 52 70 28 38 1001.1 - 1.2
07/07:00am 6.0 -5.6 4.0 87 0.8 W 54 65 29 35 1000.9 - 1.2
07/06:30am 6.1 -5.5 4.1 87 0.9 WNW 54 72 29 39 1000.4 - 1.2
07/06:22am 6.2 -4.5 4.4 88 0.8 WNW 50 69 27 37 1000.3 - 1.2
07/06:00am 6.3 -4.8 4.6 89 0.7 WNW 52 67 28 36 1000.1 1000.4 1.2
07/05:30am 6.4 -5.6 4.6 88 0.8 WNW 57 72 31 39 999.7 - 1.2
07/05:03am 6.5 -4.5 5.0 90 0.7 WNW 52 70 28 38 999.2 - 1.2
07/05:00am 6.5 -4.1 5.1 91 0.6 WNW 50 63 27 34 999.4 - 1.2
07/04:30am 6.6 -5.0 5.6 93 0.4 WNW 56 72 30 39 999.1 - 1.2
07/04:24am 6.7 -3.4 5.8 94 0.4 WNW 48 69 26 37 999.0 - 1.2
07/04:00am 6.9 -4.8 6.0 94 0.4 WNW 57 65 31 35 998.9 - 1.2
07/03:30am 7.2 -3.5 6.5 95 0.3 NW 52 61 28 33 998.9 - 1.0
07/03:00am 7.4 -4.0 6.7 95 0.3 NW 56 67 30 36 998.7 999.0 1.0
07/02:30am 7.4 -3.6 6.8 96 0.3 NW 54 61 29 33 998.7 - 1.0
07/02:00am 7.4 -2.4 7.0 97 0.2 NW 48 57 26 31 998.7 - 1.0
07/01:30am 7.4 -2.4 7.0 97 0.2 NW 48 57 26 31 998.9 - 1.0
07/01:00am 7.2 -2.3 6.8 97 0.2 NNW 46 57 25 31 998.9 - 1.0
07/12:30am 7.2 -2.7 6.8 97 0.2 NNW 48 61 26 33 999.0 - 1.0
07/12:00am 7.1 -2.4 6.7 97 0.2 NNW 46 57 25 31 999.3 999.6 0.8
 
Date/Time
EDT
Temp
°C
App
Temp
°C
Dew
Point
Rel
Hum
%
Delta-T
°C
Wind Press
QNH
hPa
Press
MSL
hPa
Rain
since 9 am
mm
Dir
 
Spd
km/h
Gust
km/h
Spd
kts
Gust
kts
06/11:30pm 7.1 -2.4 6.5 96 0.3 NNW 46 59 25 32 999.5 - 0.8
06/11:00pm 7.1 -2.4 6.5 96 0.3 NNW 46 57 25 31 999.7 - 0.8
06/10:30pm 7.1 -1.9 6.5 96 0.3 NNW 43 56 23 30 1000.0 - 0.8
06/10:00pm 7.0 -2.2 6.4 96 0.3 NNW 44 54 24 29 1000.2 - 0.8
06/09:30pm 7.1 -2.4 6.5 96 0.3 NW 46 54 25 29 1000.9 - 0.8
06/09:00pm 7.1 -1.9 6.5 96 0.3 NW 43 54 23 29 1001.1 1001.4 0.8
06/08:30pm 7.0 -2.0 6.6 97 0.2 NW 43 54 23 29 1001.0 - 0.8
06/08:00pm 7.0 -1.6 6.6 97 0.2 NNW 41 50 22 27 1001.0 - 0.8
06/07:30pm 6.9 -1.7 6.5 97 0.2 NNW 41 52 22 28 1001.0 - 0.8
06/07:00pm 6.9 -1.3 6.5 97 0.2 NNW 39 48 21 26 1001.3 - 0.8
06/06:30pm 7.0 -2.1 6.6 97 0.2 NW 44 54 24 29 1001.6 - 0.8
06/06:00pm 7.0 -2.0 6.6 97 0.2 NW 43 54 23 29 1001.6 1001.9 0.8
06/05:30pm 7.0 -1.2 6.6 97 0.2 NNW 39 50 21 27 1001.8 - 0.8
06/05:00pm 7.0 -1.2 6.4 96 0.3 NNW 39 48 21 26 1002.0 - 0.8

Other Formats:

Comma delimited format used in spreadsheet applications
http://www.bom.gov.au/fwo/IDT60801/IDT60801.94998.axf

JavaScript Object Notation format (JSON) in row-major order
http://www.bom.gov.au/fwo/IDT60801/IDT60801.94998.json